Flight Track Log - Related Links

Times and Time Zones

All times are in EST time to prevent confusion due to time zone crossing. See the UAL4295 flight status page for this flight to view local times or setup timezone preferences in your user account.

Time Position Orientation Groundspeed Altitude Reporting Facility
EST Latitude Longitude Course Direction KTS MPH feet Rate Location/Type
Mon 02:20:48 PM 29.9817 -95.3556 North 136 157 900  Level Houston Center
Mon 02:21:49 PM 30.0256 -95.3528 North 189 217 2,500 1,186 Climbing Houston Center
Mon 02:22:14 PM 30.0369 -95.3489 16° North 172 198 2,600 1,475 Climbing Houston Center
Mon 02:22:50 PM 30.0800 -95.3269 24° Northeast 231 266 4,000 1,258 Climbing Houston Center
Mon 02:23:16 PM 30.0953 -95.3189 25° Northeast 211 243 3,900 109 Descending Houston Center
Mon 02:23:45 PM 30.1364 -95.3006 21° North 239 275 4,100 571 Climbing Houston Center
Mon 02:24:19 PM 30.1689 -95.2831 25° Northeast 234 269 4,500 1,279 Climbing Houston Center
Mon 02:24:46 PM 30.1983 -95.2689 23° Northeast 245 282 5,400 1,645 Climbing Houston Center
Mon 02:25:21 PM 30.2336 -95.2489 26° Northeast 248 285 6,200 1,881 Climbing Houston Center
Mon 02:25:53 PM 30.2786 -95.2278 22° Northeast 275 316 7,500 1,839 Climbing Houston Center
Mon 02:26:23 PM 30.3064 -95.2144 23° Northeast 272 313 8,100 1,891 Climbing Houston Center
Mon 02:27:25 PM 30.3811 -95.1764 24° Northeast 287 330 10,400 1,548 Climbing Houston Center
Mon 02:28:27 PM 30.4608 -95.1378 23° Northeast 298 343 11,300 1,161 Climbing Houston Center
Mon 02:29:29 PM 30.5689 -95.0828 24° Northeast 344 396 12,800 1,161 Climbing Houston Center
Mon 02:30:31 PM 30.6586 -95.0317 26° Northeast 351 404 13,700 816 Climbing Houston Center
Mon 02:31:34 PM 30.7542 -94.9711 29° Northeast 378 435 14,500 816 Climbing Houston Center
Mon 02:32:36 PM 30.8528 -94.9106 28° Northeast 397 457 15,400 968 Climbing Houston Center
Mon 02:33:38 PM 30.9522 -94.8481 28° Northeast 402 463 16,500 1,065 Climbing Houston Center
Mon 02:34:40 PM 31.0525 -94.7858 28° Northeast 407 468 17,600 1,065 Climbing Houston Center
Mon 02:35:42 PM 31.1683 -94.7119 29° Northeast 406 467 18,700 1,065 Climbing Houston Center
Mon 02:36:44 PM 31.2619 -94.6478 30° Northeast 406 467 19,800 1,104 Climbing Houston Center
Mon 02:37:47 PM 31.3589 -94.5814 30° Northeast 406 467 21,000 1,248 Climbing Houston Center
Mon 02:38:49 PM 31.4775 -94.4989 31° Northeast 408 470 22,400 1,210 Climbing Houston Center
Mon 02:39:51 PM 31.5761 -94.4300 31° Northeast 410 472 23,500 1,016 Climbing Houston Center
Mon 02:40:53 PM 31.6775 -94.3589 31° Northeast 419 482 24,500 1,161 Climbing Houston Center
Mon 02:41:55 PM 31.7819 -94.2656 37° Northeast 425 489 25,900 1,065 Climbing Houston Center
Mon 02:42:57 PM 31.8647 -94.1883 38° Northeast 424 488 26,700 865 Climbing Houston Center
Mon 02:43:39 PM 31.9400 -94.1181 38° Northeast 423 487 27,400 865 Climbing Fort Worth Center
Mon 02:44:41 PM 32.0375 -94.0242 39° Northeast 425 489 28,200 912 Climbing Fort Worth Center
Mon 02:45:44 PM 32.1236 -93.9389 40° Northeast 426 490 29,300 1,200 Climbing Fort Worth Center
Mon 02:46:46 PM 32.2261 -93.8411 39° Northeast 426 490 30,700 1,161 Climbing Fort Worth Center
Mon 02:47:48 PM 32.3158 -93.7528 40° Northeast 424 488 31,700 677 Climbing Fort Worth Center
Mon 02:48:50 PM 32.4081 -93.6628 39° Northeast 428 493 32,100 677 Climbing Fort Worth Center
Mon 02:49:52 PM 32.5025 -93.5717 39° Northeast 437 503 33,100 919 Climbing Fort Worth Center
Mon 02:50:54 PM 32.5961 -93.4792 40° Northeast 437 503 34,000 823 Climbing Fort Worth Center
Mon 02:51:56 PM 32.6889 -93.3878 40° Northeast 437 503 34,800 484 Climbing Fort Worth Center
Mon 02:52:58 PM 32.8022 -93.2742 40° Northeast 445 512 35,000 96 Climbing Fort Worth Center
Mon 02:54:01 PM 32.9019 -93.1769 39° Northeast 464 534 35,000  Level Fort Worth Center
Mon 02:55:03 PM 33.0033 -93.0747 40° Northeast 476 548 35,000  Level Fort Worth Center
Mon 02:56:05 PM 33.1075 -92.9733 39° Northeast 483 556 35,000  Level Fort Worth Center
Mon 02:58:15 PM 33.3281 -92.7547 40° Northeast 475 547 35,000  Level Memphis Center
Mon 02:59:11 PM 33.4286 -92.6506 41° Northeast 475 547 35,000  Level Fort Worth Center
Mon 03:00:13 PM 33.5300 -92.5492 40° Northeast 478 550 35,000  Level Fort Worth Center
Mon 03:01:16 PM 33.6314 -92.4467 40° Northeast 476 548 35,000  Level Fort Worth Center
Mon 03:02:18 PM 33.7336 -92.3431 40° Northeast 477 549 35,000  Level Fort Worth Center
Mon 03:03:25 PM 33.8561 -92.2203 40° Northeast 479 551 35,000  Level Memphis Center
Mon 03:04:26 PM 33.9556 -92.1167 41° Northeast 478 550 35,000  Level Memphis Center
Mon 03:05:28 PM 34.0578 -92.0136 40° Northeast 478 550 35,000  Level Memphis Center
Mon 03:06:30 PM 34.1672 -91.9000 41° Northeast 478 550 35,000  Level Memphis Center
Mon 03:07:32 PM 34.2669 -91.7961 41° Northeast 478 550 35,000  Level Memphis Center
Mon 03:08:34 PM 34.3678 -91.6925 40° Northeast 478 550 35,000  Level Memphis Center
Mon 03:09:35 PM 34.4886 -91.5664 41° Northeast 478 550 35,000  Level Memphis Center
Mon 03:10:37 PM 34.5886 -91.4619 41° Northeast 478 550 35,000  Level Memphis Center
Mon 03:11:39 PM 34.6889 -91.3578 40° Northeast 478 550 35,000  Level Memphis Center
Mon 03:12:40 PM 34.7864 -91.2542 41° Northeast 475 547 35,000  Level Memphis Center
Mon 03:13:42 PM 34.8861 -91.1494 41° Northeast 475 547 35,000  Level Memphis Center
Mon 03:14:44 PM 35.0000 -91.0294 41° Northeast 475 547 35,000  Level Memphis Center
Mon 03:15:46 PM 35.0983 -90.9253 41° Northeast 472 543 35,000  Level Memphis Center
Mon 03:16:47 PM 35.2006 -90.8156 41° Northeast 471 542 35,000  Level Memphis Center
Mon 03:17:49 PM 35.2961 -90.7167 40° Northeast 471 542 35,000  Level Memphis Center
Mon 03:18:51 PM 35.3928 -90.6111 42° Northeast 470 541 35,000  Level Memphis Center
Mon 03:19:52 PM 35.4914 -90.5053 41° Northeast 470 541 35,000  Level Memphis Center
Mon 03:20:54 PM 35.5894 -90.4006 41° Northeast 469 540 35,000  Level Memphis Center
Mon 03:21:56 PM 35.7058 -90.2722 42° Northeast 469 540 35,000  Level Memphis Center
Mon 03:22:58 PM 35.8039 -90.1664 41° Northeast 469 540 35,000  Level Memphis Center
Mon 03:23:59 PM 35.9003 -90.0597 42° Northeast 469 540 35,000  Level Memphis Center
Mon 03:25:01 PM 35.9978 -89.9544 41° Northeast 468 539 35,000  Level Memphis Center
Mon 03:26:03 PM 36.0944 -89.8489 41° Northeast 467 537 35,000  Level Memphis Center
Mon 03:27:05 PM 36.1900 -89.7428 42° Northeast 464 534 35,000  Level Memphis Center
Mon 03:28:07 PM 36.2861 -89.6367 42° Northeast 463 533 35,000  Level Memphis Center
Mon 03:29:08 PM 36.3817 -89.5308 42° Northeast 460 529 35,000  Level Memphis Center
Mon 03:30:10 PM 36.4772 -89.4244 42° Northeast 455 524 35,000  Level Memphis Center
Mon 03:31:12 PM 36.5736 -89.3178 42° Northeast 453 521 35,000  Level Memphis Center
Mon 03:32:14 PM 36.6675 -89.2128 42° Northeast 453 521 35,000  Level Memphis Center
Mon 03:33:15 PM 36.7775 -89.0869 42° Northeast 450 518 35,000  Level Memphis Center
Mon 03:34:17 PM 36.8708 -88.9822 42° Northeast 450 518 35,000  Level Memphis Center
Mon 03:35:19 PM 36.9628 -88.8764 43° Northeast 449 517 35,000  Level Memphis Center
Mon 03:36:21 PM 37.0561 -88.7714 42° Northeast 449 517 35,000  Level Memphis Center
Mon 03:37:22 PM 37.1492 -88.6661 42° Northeast 450 518 35,000  Level Memphis Center
Mon 03:38:24 PM 37.2417 -88.5594 43° Northeast 450 518 35,000  Level Memphis Center
Mon 03:39:26 PM 37.3347 -88.4522 42° Northeast 450 518 35,000  Level Memphis Center
Mon 03:40:28 PM 37.4444 -88.3258 42° Northeast 448 516 35,000  Level Memphis Center
Mon 03:41:30 PM 37.5367 -88.2183 43° Northeast 449 517 35,000  Level Memphis Center
Mon 03:42:31 PM 37.6289 -88.1111 43° Northeast 449 517 35,000  Level Memphis Center
Mon 03:43:33 PM 37.7203 -88.0064 42° Northeast 446 513 35,000  Level Memphis Center
Mon 03:44:35 PM 37.8108 -87.9000 43° Northeast 446 513 35,000  Level Memphis Center
Mon 03:45:37 PM 37.9039 -87.7914 43° Northeast 447 514 35,000  Level Memphis Center
Mon 03:46:55 PM 38.0181 -87.6217 49° Northeast 452 520 35,000 -129 Level Indianapolis Center
Mon 03:47:56 PM 38.0992 -87.4942 51° Northeast 459 528 34,700 -439 Descending Indianapolis Center
Mon 03:48:58 PM 38.1794 -87.3681 51° Northeast 459 528 34,100 -435 Descending Indianapolis Center
Mon 03:50:00 PM 38.2553 -87.2378 53° Northeast 457 526 33,800 -585 Descending Indianapolis Center
Mon 03:51:01 PM 38.3094 -87.0700 68° East 465 535 32,900 -829 Descending Indianapolis Center
Mon 03:52:03 PM 38.3589 -86.9153 68° East 465 535 32,100 -780 Descending Indianapolis Center
Mon 03:53:04 PM 38.4061 -86.7628 68° East 465 535 31,300 -537 Descending Indianapolis Center
Mon 03:54:06 PM 38.4531 -86.6114 68° East 464 534 31,000 -146 Descending Indianapolis Center
Mon 03:55:07 PM 38.4992 -86.4583 69° East 460 529 31,000  Level Indianapolis Center
Mon 03:56:09 PM 38.5461 -86.3056 69° East 460 529 31,000  Level Indianapolis Center
Mon 03:57:11 PM 38.5925 -86.1511 69° East 461 531 31,000  Level Indianapolis Center
Mon 03:58:12 PM 38.6386 -85.9964 69° East 461 531 31,000  Level Indianapolis Center
Mon 03:59:14 PM 38.6894 -85.8261 69° East 461 531 31,000  Level Indianapolis Center
Mon 04:00:16 PM 38.7358 -85.6714 69° East 463 533 31,000  Level Indianapolis Center
Mon 04:01:17 PM 38.7814 -85.5175 69° East 463 533 31,000  Level Indianapolis Center
Mon 04:02:19 PM 38.8267 -85.3622 69° East 464 534 31,000 -585 Level Indianapolis Center
Mon 04:03:20 PM 38.8800 -85.1775 70° East 464 534 29,800 -1,756 Descending Indianapolis Center
Mon 04:04:22 PM 38.9253 -85.0225 69° East 464 534 27,400 -2,565 Descending Indianapolis Center
Mon 04:05:24 PM 38.9728 -84.8558 70° East 467 537 24,500 -1,645 Descending Indianapolis Center
Mon 04:06:26 PM 39.0183 -84.7036 69° East 463 533 24,000 -439 Descending Indianapolis Center
Mon 04:07:27 PM 39.0847 -84.5803 55° Northeast 428 493 23,600 -683 Descending Indianapolis Center
Mon 04:08:29 PM 39.1517 -84.4572 55° Northeast 422 486 22,600 -927 Descending Indianapolis Center
Mon 04:09:30 PM 39.2206 -84.3336 54° Northeast 423 487 21,700 -878 Descending Indianapolis Center
Mon 04:10:32 PM 39.2883 -84.2075 55° Northeast 426 490 20,800 -919 Descending Indianapolis Center
Mon 04:11:34 PM 39.3436 -84.0692 63° Northeast 433 498 19,800 -1,171 Descending Indianapolis Center
Mon 04:12:35 PM 39.4056 -83.9067 64° Northeast 430 495 18,400 -1,561 Descending Indianapolis Center
Mon 04:13:37 PM 39.4569 -83.7736 63° Northeast 421 484 16,600 -2,081 Descending Indianapolis Center
Mon 04:14:39 PM 39.5061 -83.6444 64° Northeast 413 475 14,100 -2,588 Descending Indianapolis Center
Mon 04:15:19 PM 39.5419 -83.5536 63° Northeast 385 443 12,200 -2,459 Descending Indianapolis Center
Mon 04:15:40 PM 39.5522 -83.5225 67° East 392 451 11,600 -1,333 Descending Indianapolis Center
Mon 04:16:13 PM 39.5822 -83.4461 63° Northeast 354 407 11,000 -581 Descending Indianapolis Center
Mon 04:16:42 PM 39.5961 -83.4106 63° Northeast 364 419 11,000  Level Indianapolis Center
Mon 04:17:20 PM 39.6389 -83.3414 51° Northeast 322 371 11,000 -194 Level Indianapolis Center
Mon 04:17:44 PM 39.6428 -83.3164 79° East 333 383 10,800 -984 Descending Indianapolis Center
Mon 04:18:21 PM 39.6450 -83.2364 88° East 283 326 10,000 -1,475 Descending Indianapolis Center
Mon 04:18:45 PM 39.6461 -83.1942 88° East 288 331 9,300 -1,869 Descending Indianapolis Center
Mon 04:19:22 PM 39.6833 -83.1664 30° Northeast 247 284 8,100 -1,839 Descending Indianapolis Center
Mon 04:19:47 PM 39.7067 -83.1564 18° North 258 297 7,400 -1,692 Descending Indianapolis Center
Mon 04:20:40 PM 39.7703 -83.1372 13° North 244 281 5,900 -1,548 Descending Indianapolis Center
Mon 04:20:49 PM 39.7725 -83.1358 26° Northeast 250 288 5,800 -1,535 Descending Indianapolis Center
Mon 04:21:23 PM 39.8158 -83.1228 13° North 238 274 4,800 -1,258 Descending Indianapolis Center
Mon 04:21:51 PM 39.8367 -83.1169 12° North 245 282 4,500 -608 Descending Indianapolis Center
Mon 04:22:42 PM 39.8981 -83.0978 13° North 227 261 4,000 -492 Descending Indianapolis Center
Mon 04:22:52 PM 39.8983 -83.0975 37° Northeast 237 273 4,000 -122 Level Indianapolis Center
Mon 04:23:31 PM 39.9414 -83.0831 14° North 214 246 3,900 -581 Descending Indianapolis Center
Mon 04:23:54 PM 39.9672 -83.0728 17° North 224 258 3,400 -982 Descending Indianapolis Center
Mon 04:24:26 PM 39.9942 -83.0589 22° Northeast 207 238 3,000 -677 Descending Indianapolis Center
Mon 04:24:56 PM 40.0094 -83.0311 54° Northeast 211 243 2,700 -615 Descending Indianapolis Center
Mon 04:25:44 PM 40.0075 -82.9872 93° East 146 168 2,200 -689 Descending Indianapolis Center
Mon 04:25:57 PM 40.0075 -82.9761 90° East 173 199 2,000 -787 Descending Indianapolis Center
Mon 04:26:45 PM 40.0033 -82.9403 99° East 125 144 1,400 -774 Descending Indianapolis Center
Mon 04:26:59 PM 40.0042 -82.9283 85° East 148 170 1,200 -857 Descending Indianapolis Center
Mon 04:28:00 PM 39.9969 -82.8922 90° East  Level Estimated
Mon 04:35:00 PM 39.9969 -82.8922 270° West  Level Estimated

Login

Don't have an account? Register now (free) for customized features, flight alerts, and more!